Capitol Logistics 361


KSEA
Seattle-Tacoma International Airport
Seattle, Washington, US
KMIA
Miami International Airport
Miami, Florida, US

Route Details

Aircraft Information
Primary: Boeing 767-300BDSF
Backup: Not Available
Route Data
Distance: 2411nm
Sched. Duration: 5h 40m
Avg. Duration: 5h 27m (-13m)
Times Flown: 7
Recm'd Route: SEA NORMY J90 MWH DLN DDY BFF SGF MEM MGM SZW PLYER JUULI SSCOT5
Planned Altitude: 35,000ft
Origin Wx: KSEA 160753Z 13005KT 7SM SCT013 06/04 A3046 RMK AO2 SLP323 T00560039 401220056
Dest. Wx: KMIA 160753Z 27010KT 10SM FEW018 SCT100 BKN160 OVC200 21/17 A2990 RMK AO2 SLP125 T02060172
Notes:

Financial History
Total Freight: 648,065lbs
Average Load: 92,581lbs/flt
Fuel Used: 409,279lbs
Avg. Fuel Used: 58,468lbs/flt
Fuel Expense: $458,393
Avg. Fuel Expense: $65,485
Avg. Fuel Cost: $1.12/lbs
Total Gross Income: $1,110,322
Pilot Pay: $1,443
Total Expenses: $120,279
Total Revenue: $522,098
Average Revenue: $158,617.39